Time;durP1;ratioP1;P1;durP2;ratioP2;P2;SDS_P1;SDS_P2;PMS_P1;PMS_P2;Temp;Humidity;BMP_temperature;BMP_pressure;BME280_temperature;BME280_humidity;BME280_pressure;Samples;Min_cycle;Max_cycle;Signal;HPM_P1;HPM_P2
2024/01/10 00:06:34;;;;;;;81.30;53.38;;;;;;;20.12;42.57;101929.91;31596238;28;20317;-33
2024/01/10 00:21:37;;;;;;;72.85;47.25;;;;;;;20.03;42.60;101918.44;31644215;28;20712;-34
2024/01/10 00:36:40;;;;;;;64.32;43.00;;;;;;;19.97;42.46;101905.56;31643875;28;20226;-35
2024/01/10 00:51:43;;;;;;;56.28;39.50;;;;;;;19.89;42.50;101894.94;31641175;28;20645;-36
2024/01/10 01:06:46;;;;;;;51.83;34.20;;;;;;;19.82;42.28;101886.03;31612419;28;20313;-34
2024/01/10 01:21:49;;;;;;;46.95;31.98;;;;;;;19.74;42.20;101876.25;31629712;28;20237;-41
2024/01/10 01:36:52;;;;;;;44.45;30.55;;;;;;;19.69;42.10;101873.50;31622465;28;20497;-35
2024/01/10 01:51:56;;;;;;;40.28;27.92;;;;;;;19.62;42.03;101856.09;31634454;28;20668;-53
2024/01/10 02:06:59;;;;;;;39.03;25.33;;;;;;;19.56;42.08;101855.34;31595509;28;20217;-52
2024/01/10 02:22:02;;;;;;;32.80;22.70;;;;;;;19.51;42.06;101848.94;31609565;28;20222;-34
2024/01/10 02:37:05;;;;;;;30.48;20.13;;;;;;;19.46;41.88;101849.00;31628091;28;20562;-34
2024/01/10 02:52:09;;;;;;;26.67;18.73;;;;;;;19.39;41.97;101842.88;31629431;28;20312;-47
2024/01/10 03:07:12;;;;;;;27.10;18.17;;;;;;;19.35;41.88;101833.31;31625694;28;20222;-43
2024/01/10 03:22:15;;;;;;;20.15;14.98;;;;;;;19.32;41.79;101812.22;31628130;28;20229;-32
2024/01/10 03:37:18;;;;;;;20.83;15.20;;;;;;;19.36;42.04;101816.09;31630296;28;20281;-32
2024/01/10 03:52:21;;;;;;;20.13;14.23;;;;;;;19.54;41.76;101817.25;31632058;28;20276;-36
2024/01/10 04:07:24;;;;;;;20.02;14.13;;;;;;;19.71;41.54;101811.06;31629691;28;20257;-33
2024/01/10 04:22:27;;;;;;;16.40;11.77;;;;;;;19.81;41.16;101810.91;31644388;28;20304;-33
2024/01/10 04:37:30;;;;;;;16.88;11.38;;;;;;;19.88;40.81;101815.00;31583874;28;20586;-32
2024/01/10 04:52:33;;;;;;;14.02;10.38;;;;;;;19.93;40.09;101806.44;31576100;28;20314;-40
2024/01/10 05:07:36;;;;;;;15.77;10.57;;;;;;;19.96;39.76;101802.16;31619419;28;20237;-38
2024/01/10 05:22:41;;;;;;;12.93;9.57;;;;;;;19.98;40.00;101789.41;31614680;28;20672;-35
2024/01/10 05:37:44;;;;;;;10.68;8.27;;;;;;;20.01;39.21;101787.09;31624727;28;20293;-44
2024/01/10 05:52:47;;;;;;;12.55;9.23;;;;;;;19.98;39.13;101792.22;31617801;28;20699;-51
2024/01/10 06:07:50;;;;;;;10.73;8.15;;;;;;;20.02;38.89;101795.25;31594498;28;20222;-46
2024/01/10 06:22:53;;;;;;;239.10;150.82;;;;;;;20.29;41.23;101794.47;31540487;28;20531;-40
2024/01/10 06:37:56;;;;;;;194.82;122.80;;;;;;;20.61;41.80;101805.75;31540659;28;20203;-47
2024/01/10 06:52:59;;;;;;;116.97;75.00;;;;;;;20.83;41.08;101790.03;31559180;28;20325;-48
2024/01/10 07:08:03;;;;;;;180.63;115.03;;;;;;;21.02;41.13;101804.91;31536706;28;20543;-46
2024/01/10 07:23:07;;;;;;;110.75;71.75;;;;;;;21.11;41.01;101793.66;31517345;28;21592;-48
2024/01/10 07:38:11;;;;;;;184.75;118.78;;;;;;;21.05;41.25;101801.41;31496089;28;20237;-43
2024/01/10 07:53:14;;;;;;;233.20;150.82;;;;;;;21.00;41.20;101799.56;31578194;28;20227;-46
2024/01/10 08:08:18;;;;;;;209.95;132.48;;;;;;;21.00;41.36;101795.88;31559096;28;20230;-41
2024/01/10 08:23:21;;;;;;;176.60;113.43;;;;;;;20.87;41.36;101793.91;31490502;28;20250;-45
2024/01/10 08:38:24;;;;;;;174.73;113.38;;;;;;;20.85;41.27;101790.53;31569987;28;20203;-47
2024/01/10 08:53:27;;;;;;;300.40;189.18;;;;;;;20.79;41.61;101786.13;31446057;28;20663;-47
2024/01/10 09:08:30;;;;;;;218.45;134.95;;;;;;;20.76;41.38;101809.44;31545836;28;20685;-47
2024/01/10 09:23:33;;;;;;;207.32;125.88;;;;;;;20.79;41.65;101803.13;31552000;28;20234;-49
2024/01/10 09:38:41;;;;;;;165.68;101.75;;;;;;;20.78;41.46;101812.75;31561854;28;20686;-45
2024/01/10 09:53:47;;;;;;;152.90;91.50;;;;;;;20.71;41.51;101812.34;31544773;28;20233;-47
2024/01/10 10:08:51;;;;;;;154.13;91.88;;;;;;;20.77;41.59;101811.94;31490451;28;20446;-46
2024/01/10 10:24:01;;;;;;;201.05;121.13;;;;;;;20.85;41.55;101799.88;31446347;28;20250;-46
2024/01/10 10:39:13;;;;;;;249.75;148.52;;;;;;;20.85;41.85;101796.22;31554949;28;20201;-44
2024/01/10 10:54:16;;;;;;;271.60;164.43;;;;;;;20.95;41.74;101774.19;31537858;28;20227;-49
2024/01/10 11:09:22;;;;;;;244.00;142.95;;;;;;;20.99;42.23;101775.22;31584577;28;20583;-46
2024/01/10 11:24:25;;;;;;;226.43;136.95;;;;;;;21.09;42.04;101774.16;31570764;28;20559;-47
2024/01/10 11:39:29;;;;;;;291.58;166.82;;;;;;;21.26;42.24;101763.03;31502202;28;20222;-47
2024/01/10 11:54:39;;;;;;;214.27;126.07;;;;;;;21.31;42.03;101747.91;31570361;28;20330;-48
2024/01/10 12:09:42;;;;;;;168.85;102.38;;;;;;;21.33;41.80;101745.59;31560813;28;20279;-47
2024/01/10 12:24:46;;;;;;;147.82;86.50;;;;;;;21.35;40.99;101755.44;31575184;28;20284;-42
2024/01/10 12:55:50;;;;;;;116.60;69.15;;;;;;;22.65;39.02;101723.00;31522490;28;20483;-45
2024/01/10 13:10:53;;;;;;;131.48;78.10;;;;;;;21.77;41.31;101743.94;31555743;28;20607;-46
2024/01/10 13:25:56;;;;;;;188.23;113.78;;;;;;;21.58;42.26;101729.94;31522138;28;20551;-48
2024/01/10 13:41:01;;;;;;;168.82;100.68;;;;;;;21.49;42.04;101748.88;31529090;28;20293;-44
2024/01/10 13:56:04;;;;;;;240.25;139.80;;;;;;;21.35;41.86;101740.44;31530184;28;20227;-45
2024/01/10 14:11:07;;;;;;;221.65;132.98;;;;;;;21.33;42.53;101754.91;31533678;28;20636;-46
2024/01/10 14:26:11;;;;;;;429.45;275.25;;;;;;;21.66;43.04;101746.19;31541616;28;20240;-49
2024/01/10 14:41:14;;;;;;;575.38;374.38;;;;;;;21.70;41.93;101755.69;31545338;28;20190;-48
2024/01/10 14:56:17;;;;;;;307.10;188.20;;;;;;;21.83;41.72;101757.63;31556199;28;20315;-42
2024/01/10 15:11:22;;;;;;;494.63;332.65;;;;;;;21.97;43.64;101738.53;31491695;28;20232;-36
2024/01/10 15:26:27;;;;;;;429.52;293.48;;;;;;;21.90;42.66;101762.84;31539564;28;20617;-44
2024/01/10 15:41:30;;;;;;;398.65;272.92;;;;;;;21.90;42.40;101754.34;31554634;28;20198;-52
2024/01/10 15:56:38;;;;;;;430.83;301.42;;;;;;;21.84;42.71;101762.13;31543076;28;20217;-48
2024/01/10 16:11:47;;;;;;;419.23;296.42;;;;;;;21.81;42.79;101762.78;31509424;28;20228;-38
2024/01/10 16:26:50;;;;;;;441.83;316.20;;;;;;;21.73;42.68;101755.06;31554051;28;20226;-34
2024/01/10 16:41:53;;;;;;;478.80;345.42;;;;;;;21.85;43.13;101766.66;31521407;28;20620;-38
2024/01/10 16:56:56;;;;;;;481.95;356.80;;;;;;;21.87;43.49;101784.16;31538701;28;20464;-39
2024/01/10 17:12:00;;;;;;;433.60;314.42;;;;;;;22.06;43.11;101799.03;31555701;28;20361;-54
2024/01/10 17:27:03;;;;;;;381.50;274.98;;;;;;;22.10;42.85;101800.03;31544159;28;20250;-52
2024/01/10 17:42:07;;;;;;;340.88;246.50;;;;;;;22.14;42.31;101816.41;31550573;28;20234;-38
2024/01/10 17:57:10;;;;;;;428.90;324.52;;;;;;;22.22;44.22;101829.78;31568928;28;20199;-37
2024/01/10 18:12:13;;;;;;;553.42;416.13;;;;;;;22.20;43.64;101837.78;31546849;28;20223;-48
2024/01/10 18:27:16;;;;;;;419.17;317.45;;;;;;;22.19;43.22;101847.47;31523804;28;20233;-36
2024/01/10 18:42:19;;;;;;;359.55;265.80;;;;;;;22.10;42.66;101861.56;31522127;28;20222;-36
2024/01/10 18:57:22;;;;;;;314.90;228.13;;;;;;;21.88;43.85;101870.03;31507433;28;20203;-37
2024/01/10 19:12:27;;;;;;;492.05;369.42;;;;;;;21.78;47.63;101885.31;31531712;28;20218;-35
2024/01/10 19:27:30;;;;;;;335.65;244.60;;;;;;;21.83;44.12;101868.16;31524543;28;20572;-39
2024/01/10 19:42:33;;;;;;;303.08;219.75;;;;;;;21.85;43.93;101877.19;31523012;28;20226;-41
2024/01/10 19:57:37;;;;;;;274.88;195.93;;;;;;;21.86;44.20;101881.69;31515053;28;20289;-38
2024/01/10 20:12:40;;;;;;;248.50;178.35;;;;;;;21.85;43.68;101880.00;31543209;28;20254;-36
2024/01/10 20:27:43;;;;;;;224.93;155.38;;;;;;;21.80;43.76;101885.00;31581074;28;20223;-39
2024/01/10 20:42:46;;;;;;;197.05;137.00;;;;;;;21.71;43.42;101887.72;31540624;28;20230;-41
2024/01/10 20:57:49;;;;;;;176.43;123.25;;;;;;;21.71;44.08;101916.06;31534567;28;20387;-56
2024/01/10 21:12:52;;;;;;;169.20;116.90;;;;;;;21.59;44.07;101918.59;31551328;28;20333;-48
2024/01/10 21:27:55;;;;;;;213.15;147.98;;;;;;;21.74;43.82;101926.75;31483085;28;20227;-47
2024/01/10 21:42:58;;;;;;;224.35;157.80;;;;;;;21.81;43.82;101947.00;31424875;28;20215;-40
2024/01/10 21:58:01;;;;;;;288.88;215.57;;;;;;;21.79;43.89;101974.00;31557835;28;20201;-47
2024/01/10 22:13:04;;;;;;;265.10;194.93;;;;;;;21.78;44.03;101987.31;31512676;28;20242;-43
2024/01/10 22:28:07;;;;;;;223.50;157.73;;;;;;;21.75;43.66;101996.44;31593171;28;20265;-47
2024/01/10 22:43:11;;;;;;;273.88;193.25;;;;;;;21.76;44.45;102009.47;31598215;28;20314;-32
2024/01/10 22:58:14;;;;;;;262.52;185.68;;;;;;;21.77;44.64;101991.31;31532839;28;20289;-33
2024/01/10 23:13:17;;;;;;;239.70;163.90;;;;;;;21.74;44.43;102006.94;31541240;28;20240;-39
2024/01/10 23:28:20;;;;;;;239.35;168.00;;;;;;;21.72;44.36;102016.91;31600484;28;20256;-32
2024/01/10 23:43:23;;;;;;;203.93;143.55;;;;;;;21.73;44.17;102007.25;31555698;28;20223;-33
2024/01/10 23:58:26;;;;;;;170.07;120.07;;;;;;;21.78;43.60;102007.16;31548458;28;20279;-36
